Search for airport 
image banner adimage banner adimage banner ad
image banner ad

8PS3 - Empire

Located in Taylor, United States

ICAO - 8PS3, IATA -

Data provided by Airmate  

General information

Coordinates: N41°23'40" W75°44'6"
Elevation is 900 feet MSL.
Magnetic variation is -12° East
View others Airports in Pennsylvania

Operational data

Special qualification required
Current time UTC:
Current local time:
Weather at : KAVP - Wilkes-Barre/Scranton Intl ( 6 km )
METAR: KAVP 091254Z 27005KT 10SM CLR 08/04 A3008 RMK AO2 SLP187 T00830039
TAF: KAVP 091120Z 0912/1012 VRB03KT P6SM BKN200 FM091800 22007KT P6SM OVC025 TEMPO 0918/0919 4SM -RA BR FM091900 21007KT 3SM RA BR OVC015 FM092000 17006KT 3SM SHRA BR OVC010 FM101000 33006KT 6SM BR OVC010
View NOTAMs / SUP AIP / TFR affecting this airport [VIEW]
Communications frequencies: [VIEW]

Runways:

Airport contact information

Address: Taylor United States

Satellite view of 8PS3